createdAt,value
2018-05-24T00:01:03.417Z,5.63
2018-05-24T00:03:37.009Z,5.10
2018-05-24T00:06:09.686Z,4.80
2018-05-24T00:08:43.538Z,5.53
2018-05-24T00:11:17.033Z,5.30
2018-05-24T00:13:50.737Z,5.43
2018-05-24T00:16:24.362Z,5.30
2018-05-24T00:18:58.267Z,5.73
2018-05-24T00:21:31.357Z,6.47
2018-05-24T00:24:04.810Z,6.03
2018-05-24T00:26:38.080Z,6.27
2018-05-24T00:29:12.808Z,5.63
2018-05-24T00:31:46.167Z,5.80
2018-05-24T00:34:19.398Z,5.87
2018-05-24T00:36:52.667Z,6.80
2018-05-24T00:39:29.273Z,6.20
2018-05-24T00:42:02.348Z,7.83
2018-05-24T00:44:35.577Z,7.47
2018-05-24T00:47:09.008Z,6.93
2018-05-24T00:49:45.634Z,6.43
2018-05-24T00:52:18.749Z,6.47
2018-05-24T00:54:53.060Z,6.40
2018-05-24T00:57:25.885Z,5.53
2018-05-24T00:59:59.477Z,6.40
2018-05-24T01:02:32.602Z,7.27
2018-05-24T01:05:06.120Z,6.77
2018-05-24T01:07:38.979Z,6.07
2018-05-24T01:10:15.706Z,6.13
2018-05-24T01:12:48.877Z,6.43
2018-05-24T01:15:21.816Z,6.73
2018-05-24T01:17:54.586Z,6.37
2018-05-24T01:20:32.277Z,6.97
2018-05-24T01:23:05.236Z,7.00
2018-05-24T01:25:38.253Z,6.80
2018-05-24T01:28:11.250Z,6.90
2018-05-24T01:30:44.683Z,7.97
2018-05-24T01:33:17.713Z,7.97
2018-05-24T01:35:51.097Z,7.57
2018-05-24T01:38:24.473Z,7.47
2018-05-24T01:40:57.374Z,7.97
2018-05-24T01:43:30.718Z,7.80
2018-05-24T01:46:04.227Z,8.93
2018-05-24T01:48:39.035Z,8.30
2018-05-24T01:51:12.763Z,9.07
2018-05-24T01:53:46.625Z,8.53
2018-05-24T01:56:19.814Z,8.67
2018-05-24T01:58:54.021Z,8.87
2018-05-24T02:01:27.273Z,8.60
2018-05-24T02:04:00.819Z,7.90
2018-05-24T02:06:34.156Z,5.40
2018-05-24T02:09:07.612Z,6.50
2018-05-24T02:11:40.804Z,4.97
2018-05-24T02:14:14.090Z,5.60
2018-05-24T02:16:47.374Z,5.37
2018-05-24T02:19:23.886Z,4.60
2018-05-24T02:21:56.929Z,5.40
2018-05-24T02:24:30.316Z,5.63
2018-05-24T02:27:04.419Z,5.83
2018-05-24T02:29:41.344Z,5.33
2018-05-24T02:32:14.250Z,5.60
2018-05-24T02:34:47.464Z,5.90
2018-05-24T02:37:20.775Z,5.63
2018-05-24T02:39:57.237Z,5.93
2018-05-24T02:42:30.251Z,5.47
2018-05-24T02:45:03.583Z,6.03
2018-05-24T02:47:37.117Z,7.03
2018-05-24T02:50:10.589Z,6.93
2018-05-24T02:52:43.856Z,7.57
2018-05-24T02:55:17.407Z,7.13
2018-05-24T02:57:50.742Z,8.33
2018-05-24T03:00:27.372Z,7.10
2018-05-24T03:03:00.400Z,6.37
2018-05-24T03:05:33.709Z,7.33
2018-05-24T03:08:07.217Z,5.87
2018-05-24T03:10:43.634Z,5.47
2018-05-24T03:13:16.570Z,5.47
2018-05-24T03:15:49.859Z,6.73
2018-05-24T03:18:24.173Z,6.20
2018-05-24T03:20:57.282Z,5.70
2018-05-24T03:23:30.531Z,5.50
2018-05-24T03:26:03.553Z,5.07
2018-05-24T03:28:39.612Z,5.33
2018-05-24T03:31:12.703Z,5.97
2018-05-24T03:33:46.161Z,6.10
2018-05-24T03:36:19.389Z,6.53
2018-05-24T03:38:53.387Z,5.90
2018-05-24T03:41:26.886Z,6.27
2018-05-24T03:44:00.010Z,5.83
2018-05-24T03:46:32.922Z,5.93
2018-05-24T03:49:06.337Z,5.53
2018-05-24T03:51:39.985Z,5.70
2018-05-24T03:54:13.486Z,7.77
2018-05-24T03:56:47.181Z,8.27
2018-05-24T04:02:44.976Z,4.33
2018-05-24T04:05:17.665Z,4.70
2018-05-24T04:07:51.504Z,6.20
2018-05-24T04:10:24.637Z,7.63
2018-05-24T04:12:57.945Z,6.23
2018-05-24T04:15:31.252Z,5.30
2018-05-24T04:18:04.644Z,7.53
2018-05-24T04:20:37.772Z,6.23
2018-05-24T04:23:11.277Z,6.40
2018-05-24T04:25:44.583Z,6.30
2018-05-24T04:28:20.934Z,6.83
2018-05-24T04:30:54.201Z,6.70
2018-05-24T04:33:27.427Z,6.63
2018-05-24T04:36:00.661Z,6.33
2018-05-24T04:38:37.085Z,7.40
2018-05-24T04:41:10.165Z,7.23
2018-05-24T04:43:43.637Z,6.93
2018-05-24T04:46:16.978Z,7.17
2018-05-24T04:48:51.378Z,6.73
2018-05-24T04:51:24.809Z,6.90
2018-05-24T04:53:58.129Z,6.90
2018-05-24T04:56:31.593Z,7.30
2018-05-24T04:59:14.364Z,7.27
2018-05-24T05:01:47.488Z,6.27
2018-05-24T05:04:20.919Z,7.00
2018-05-24T05:06:54.193Z,6.83
2018-05-24T05:09:27.613Z,6.20
2018-05-24T05:12:00.840Z,7.00
2018-05-24T05:14:34.209Z,6.70
2018-05-24T05:17:07.449Z,7.47
2018-05-24T05:19:41.013Z,7.17
2018-05-24T05:22:14.198Z,8.23
2018-05-24T05:24:47.580Z,9.67
2018-05-24T05:27:20.918Z,11.17
2018-05-24T05:29:54.306Z,13.43
2018-05-24T05:32:27.529Z,22.10
2018-05-24T05:35:01.125Z,41.63
2018-05-24T05:37:34.599Z,50.63
2018-05-24T05:40:07.253Z,58.97
2018-05-24T05:42:40.347Z,36.60
2018-05-24T05:45:13.664Z,44.60
2018-05-24T05:47:47.349Z,41.43
2018-05-24T05:50:20.160Z,41.80
2018-05-24T05:52:53.608Z,39.17
2018-05-24T05:55:26.314Z,34.50
2018-05-24T05:58:05.810Z,35.17
2018-05-24T06:00:39.538Z,37.33
2018-05-24T06:03:12.429Z,42.00
2018-05-24T06:05:46.060Z,36.83
2018-05-24T06:08:22.745Z,36.60
2018-05-24T06:10:55.709Z,35.87
2018-05-24T06:13:28.673Z,35.27
2018-05-24T06:17:40.484Z,31.33
2018-05-24T06:20:17.961Z,32.73
2018-05-24T06:22:51.054Z,32.90
2018-05-24T06:26:37.004Z,32.40
2018-05-24T06:29:04.890Z,31.80
2018-05-24T06:31:31.555Z,29.23
2018-05-24T06:33:58.463Z,29.43
2018-05-24T06:36:25.334Z,30.23
2018-05-24T06:38:53.290Z,29.77
2018-05-24T06:41:19.872Z,27.10
2018-05-24T06:43:46.769Z,26.13
2018-05-24T06:46:13.491Z,23.77
2018-05-24T06:48:40.214Z,24.20
2018-05-24T06:51:07.112Z,25.03
2018-05-24T06:53:33.793Z,22.43
2018-05-24T06:56:00.654Z,19.87
2018-05-24T06:58:27.902Z,19.07
2018-05-24T07:00:54.762Z,10.33
2018-05-24T07:03:21.921Z,11.80
2018-05-24T07:05:48.821Z,5.40
2018-05-24T07:08:19.917Z,6.53
2018-05-24T07:10:46.582Z,15.53
2018-05-24T07:13:13.881Z,12.06
2018-05-24T07:15:41.124Z,12.83
2018-05-24T07:18:08.870Z,12.17
2018-05-24T07:20:36.510Z,10.90
2018-05-24T07:23:03.097Z,8.30
2018-05-24T07:25:30.273Z,8.27
2018-05-24T07:28:00.470Z,6.30
2018-05-24T07:30:27.143Z,4.70
2018-05-24T07:32:53.834Z,4.20
2018-05-24T07:35:20.618Z,3.90
2018-05-24T07:37:52.705Z,3.83
2018-05-24T07:40:19.887Z,3.70
2018-05-24T07:42:46.913Z,2.83
2018-05-24T07:45:13.722Z,3.20
2018-05-24T07:47:45.295Z,2.70
2018-05-24T07:50:11.953Z,3.00
2018-05-24T07:52:39.375Z,2.90
2018-05-24T07:55:06.423Z,3.17
2018-05-24T07:57:33.022Z,3.10
2018-05-24T08:00:00.112Z,2.87
2018-05-24T08:02:28.168Z,2.87
2018-05-24T08:04:55.018Z,2.77
2018-05-24T08:07:21.706Z,2.90
2018-05-24T08:09:49.376Z,2.93
2018-05-24T08:12:15.895Z,3.10
2018-05-24T08:14:42.658Z,3.10
2018-05-24T08:17:09.601Z,2.67
2018-05-24T08:19:37.931Z,3.10
2018-05-24T08:22:05.617Z,3.13
2018-05-24T08:24:32.368Z,3.00
2018-05-24T08:26:59.739Z,3.20
2018-05-24T08:29:27.607Z,3.17
2018-05-24T08:31:54.265Z,3.17
2018-05-24T08:34:21.034Z,2.87
2018-05-24T08:36:47.690Z,2.97
2018-05-24T08:39:18.097Z,3.27
2018-05-24T08:41:44.805Z,2.83
2018-05-24T08:44:11.907Z,3.03
2018-05-24T08:46:38.556Z,2.70
2018-05-24T08:49:08.338Z,4.30
2018-05-24T08:51:35.458Z,3.20
2018-05-24T08:54:02.132Z,2.43
2018-05-24T08:56:28.849Z,2.63
2018-05-24T08:59:00.325Z,2.50
2018-05-24T09:01:27.083Z,2.27
2018-05-24T09:03:53.800Z,2.50
2018-05-24T09:06:20.941Z,2.50
2018-05-24T09:08:48.909Z,2.33
2018-05-24T09:11:15.936Z,2.40
2018-05-24T09:13:43.067Z,2.60
2018-05-24T09:16:09.607Z,2.33
2018-05-24T09:18:37.679Z,2.57
2018-05-24T09:21:05.197Z,2.50
2018-05-24T09:23:31.949Z,2.80
2018-05-24T09:25:58.661Z,2.22
2018-05-24T09:28:29.053Z,2.27
2018-05-24T09:30:56.148Z,2.50
2018-05-24T09:33:23.053Z,2.20
2018-05-24T09:35:49.715Z,3.00
2018-05-24T09:38:19.553Z,3.10
2018-05-24T09:40:46.498Z,2.15
2018-05-24T09:43:13.129Z,2.40
2018-05-24T09:45:40.448Z,2.17
2018-05-24T09:48:08.835Z,2.35
2018-05-24T09:50:35.582Z,2.67
2018-05-24T09:53:02.305Z,1.98
2018-05-24T09:55:29.313Z,2.40
2018-05-24T09:58:00.327Z,2.20
2018-05-24T10:00:27.066Z,2.28
2018-05-24T10:02:54.005Z,2.10
2018-05-24T10:05:21.026Z,2.37
2018-05-24T10:07:49.555Z,2.22
2018-05-24T10:10:16.290Z,2.12
2018-05-24T10:12:43.069Z,2.30
2018-05-24T10:15:09.790Z,2.20
2018-05-24T10:17:37.703Z,2.15
2018-05-24T10:20:04.300Z,1.90
2018-05-24T10:22:32.385Z,2.00
2018-05-24T10:24:59.204Z,2.25
2018-05-24T10:27:26.026Z,2.12
2018-05-24T10:29:53.306Z,2.03
2018-05-24T10:32:20.462Z,1.98
2018-05-24T10:34:47.634Z,1.75
2018-05-24T10:37:14.365Z,1.58
2018-05-24T10:39:41.089Z,1.62
2018-05-24T10:42:07.821Z,1.85
2018-05-24T10:44:34.733Z,1.60
2018-05-24T10:47:01.373Z,2.08
2018-05-24T10:49:29.190Z,2.15
2018-05-24T10:51:56.217Z,2.17
2018-05-24T10:54:23.205Z,1.67
2018-05-24T10:56:51.298Z,2.33
2018-05-24T10:59:19.084Z,2.05
2018-05-24T11:01:46.073Z,2.03
2018-05-24T11:04:12.962Z,2.00
2018-05-24T11:06:39.678Z,2.22
2018-05-24T11:09:06.352Z,2.10
2018-05-24T11:11:33.000Z,2.00
2018-05-24T11:14:00.040Z,1.80
2018-05-24T11:16:28.014Z,2.00
2018-05-24T11:18:55.599Z,2.10
2018-05-24T11:21:22.176Z,2.35
2018-05-24T11:23:48.908Z,2.22
2018-05-24T11:26:15.561Z,2.75
2018-05-24T11:28:45.466Z,2.42
2018-05-24T11:31:12.489Z,2.20
2018-05-24T11:33:39.251Z,2.15
2018-05-24T11:36:05.810Z,2.30
2018-05-24T11:38:34.098Z,2.70
2018-05-24T11:41:00.733Z,2.12
2018-05-24T11:43:27.846Z,2.15
2018-05-24T11:45:55.429Z,2.30
2018-05-24T11:48:22.099Z,2.12
2018-05-24T11:50:48.831Z,2.35
2018-05-24T11:53:15.646Z,2.28
2018-05-24T11:55:42.785Z,2.30
2018-05-24T11:58:09.553Z,3.05
2018-05-24T12:00:36.190Z,2.62
2018-05-24T12:03:02.986Z,2.87
2018-05-24T12:05:30.353Z,2.25
2018-05-24T12:07:59.138Z,2.33
2018-05-24T12:10:26.199Z,2.50
2018-05-24T12:12:52.909Z,2.55
2018-05-24T12:15:20.080Z,2.60
2018-05-24T12:17:51.113Z,2.55
2018-05-24T12:20:18.273Z,2.47
2018-05-24T12:22:45.533Z,2.83
2018-05-24T12:25:12.126Z,2.67
2018-05-24T12:27:39.597Z,2.62
2018-05-24T12:30:06.317Z,3.37
2018-05-24T12:32:32.949Z,2.53
2018-05-24T12:34:59.569Z,2.33
2018-05-24T12:37:27.216Z,2.65
2018-05-24T12:39:54.233Z,2.58
2018-05-24T12:42:21.921Z,2.50
2018-05-24T12:44:48.809Z,2.80
2018-05-24T12:47:15.878Z,2.87
2018-05-24T12:49:42.769Z,2.85
2018-05-24T12:52:09.519Z,3.12
2018-05-24T12:54:36.693Z,2.65
2018-05-24T12:57:04.437Z,3.00
2018-05-24T12:59:31.145Z,2.85
2018-05-24T13:01:58.738Z,2.62
2018-05-24T13:04:25.352Z,2.80
2018-05-24T13:06:52.333Z,2.65
2018-05-24T13:09:19.213Z,2.65
2018-05-24T13:11:45.931Z,2.62
2018-05-24T13:14:12.577Z,3.12
2018-05-24T13:16:39.225Z,3.03
2018-05-24T13:19:05.989Z,2.85
2018-05-24T13:21:32.565Z,2.78
2018-05-24T13:23:59.187Z,2.92
2018-05-24T13:26:28.153Z,3.00
2018-05-24T13:28:56.841Z,3.10
2018-05-24T13:31:23.536Z,3.40
2018-05-24T13:33:50.123Z,3.20
2018-05-24T13:36:16.854Z,3.50
2018-05-24T13:38:44.235Z,3.60
2018-05-24T13:41:10.884Z,3.78
2018-05-24T13:43:37.551Z,3.78
2018-05-24T13:46:04.777Z,3.30
2018-05-24T13:48:31.751Z,3.60
2018-05-24T13:50:58.385Z,3.25
2018-05-24T13:53:25.683Z,3.70
2018-05-24T13:55:52.531Z,3.42
2018-05-24T13:58:19.188Z,3.50
2018-05-24T14:00:46.026Z,3.50
2018-05-24T14:03:12.788Z,3.47
2018-05-24T14:05:39.350Z,3.70
2018-05-24T14:08:06.173Z,3.05
2018-05-24T14:10:33.169Z,3.08
2018-05-24T14:12:59.766Z,3.60
2018-05-24T14:15:26.808Z,3.22
2018-05-24T14:17:55.247Z,3.47
2018-05-24T14:20:21.801Z,3.28
2018-05-24T14:22:49.056Z,3.62
2018-05-24T14:25:15.741Z,3.30
2018-05-24T14:27:43.484Z,3.90
2018-05-24T14:30:11.109Z,3.30
2018-05-24T14:32:37.722Z,3.50
2018-05-24T14:35:04.677Z,3.20
2018-05-24T14:37:34.938Z,2.90
2018-05-24T14:40:01.672Z,2.60
2018-05-24T14:42:28.502Z,2.92
2018-05-24T14:44:55.574Z,2.87
2018-05-24T14:47:22.228Z,3.17
2018-05-24T14:49:49.169Z,3.45
2018-05-24T14:52:16.557Z,3.33
2018-05-24T14:54:43.081Z,2.90
2018-05-24T14:57:10.190Z,3.00
2018-05-24T14:59:37.619Z,2.70
2018-05-24T15:02:04.345Z,3.25
2018-05-24T15:04:31.013Z,3.12
2018-05-24T15:06:58.288Z,2.75
2018-05-24T15:09:24.961Z,3.30
2018-05-24T15:11:51.579Z,3.35
2018-05-24T15:14:18.294Z,3.30
2018-05-24T15:16:46.454Z,3.08
2018-05-24T15:19:12.964Z,3.67
2018-05-24T15:21:39.758Z,4.03
2018-05-24T15:24:06.447Z,3.37
2018-05-24T15:26:33.353Z,3.85
2018-05-24T15:29:00.416Z,3.50
2018-05-24T15:31:26.967Z,3.33
2018-05-24T15:33:53.641Z,2.92
2018-05-24T15:36:20.157Z,2.97
2018-05-24T15:38:47.045Z,3.08
2018-05-24T15:41:13.589Z,3.00
2018-05-24T15:43:40.368Z,3.22
2018-05-24T15:46:07.059Z,3.33
2018-05-24T15:48:35.009Z,2.85
2018-05-24T15:51:01.532Z,3.15
2018-05-24T15:53:28.469Z,2.85
2018-05-24T15:55:55.187Z,2.97
2018-05-24T15:58:23.088Z,3.25
2018-05-24T16:00:49.758Z,3.87
2018-05-24T16:03:16.461Z,3.60
2018-05-24T16:05:43.462Z,4.60
2018-05-24T16:08:13.450Z,3.83
2018-05-24T16:10:40.645Z,4.68
2018-05-24T16:13:07.617Z,5.87
2018-05-24T16:15:34.579Z,4.32
2018-05-24T16:18:06.760Z,5.53
2018-05-24T16:20:33.613Z,3.90
2018-05-24T16:23:00.522Z,4.97
2018-05-24T16:25:27.343Z,3.70
2018-05-24T16:27:54.709Z,4.28
2018-05-24T16:30:22.254Z,3.60
2018-05-24T16:32:48.980Z,6.12
2018-05-24T16:35:15.526Z,3.55
2018-05-24T16:37:42.667Z,5.45
2018-05-24T16:40:09.250Z,5.68
2018-05-24T16:42:37.030Z,4.12
2018-05-24T16:45:03.672Z,4.03
2018-05-24T16:47:34.420Z,5.07
2018-05-24T16:50:01.071Z,5.97
2018-05-24T16:52:27.730Z,11.27
2018-05-24T16:54:54.446Z,7.97
2018-05-24T16:57:21.095Z,4.77
2018-05-24T16:59:48.323Z,3.77
2018-05-24T17:02:15.330Z,4.10
2018-05-24T17:04:41.928Z,3.87
2018-05-24T17:07:08.592Z,4.13
2018-05-24T17:09:35.245Z,4.20
2018-05-24T17:12:01.850Z,10.73
2018-05-24T17:14:31.253Z,4.83
2018-05-24T17:16:58.827Z,6.97
2018-05-24T17:19:25.923Z,5.70
2018-05-24T17:21:52.624Z,5.30
2018-05-24T17:24:19.316Z,4.90
2018-05-24T17:26:47.471Z,4.80
2018-05-24T17:29:14.126Z,5.43
2018-05-24T17:31:40.815Z,5.53
2018-05-24T17:34:07.792Z,4.57
2018-05-24T17:36:34.419Z,4.40
2018-05-24T17:39:01.816Z,3.90
2018-05-24T17:41:28.561Z,4.43
2018-05-24T17:43:55.515Z,4.80
2018-05-24T17:46:22.201Z,4.80
2018-05-24T17:48:48.886Z,5.30
2018-05-24T17:51:15.502Z,4.27
2018-05-24T17:53:42.426Z,4.40
2018-05-24T17:56:09.276Z,4.60
2018-05-24T17:58:36.667Z,4.17
2018-05-24T18:01:03.377Z,4.13
2018-05-24T18:03:37.985Z,4.00
2018-05-24T18:06:11.372Z,4.10
2018-05-24T18:08:44.825Z,3.50
2018-05-24T18:11:11.783Z,3.73
2018-05-24T18:13:39.127Z,3.30
2018-05-24T18:16:05.875Z,3.60
2018-05-24T18:18:32.541Z,3.80
2018-05-24T18:20:59.469Z,3.47
2018-05-24T18:23:26.149Z,3.50
2018-05-24T18:25:52.709Z,4.00
2018-05-24T18:28:20.578Z,3.00
2018-05-24T18:30:47.524Z,2.87
2018-05-24T18:33:15.035Z,3.20
2018-05-24T18:35:42.037Z,3.27
2018-05-24T18:38:10.330Z,3.27
2018-05-24T18:40:36.896Z,3.20
2018-05-24T18:43:04.686Z,3.07
2018-05-24T18:45:32.190Z,3.77
2018-05-24T18:47:58.864Z,3.30
2018-05-24T18:50:25.551Z,3.20
2018-05-24T18:52:52.497Z,3.00
2018-05-24T18:55:19.974Z,3.27
2018-05-24T18:57:47.213Z,5.00
2018-05-24T19:00:14.255Z,3.33
2018-05-24T19:02:40.895Z,3.27
2018-05-24T19:05:07.453Z,6.33
2018-05-24T19:07:34.189Z,4.00
2018-05-24T19:10:01.031Z,3.83
2018-05-24T19:12:27.626Z,4.37
2018-05-24T19:14:55.085Z,4.00
2018-05-24T19:17:23.205Z,3.60
2018-05-24T19:19:49.722Z,4.40
2018-05-24T19:22:16.347Z,4.10
2018-05-24T19:24:42.950Z,3.73
2018-05-24T19:27:15.735Z,4.93
2018-05-24T19:29:42.391Z,4.70
2018-05-24T19:32:09.476Z,4.07
2018-05-24T19:34:36.378Z,3.70
2018-05-24T19:37:02.901Z,4.23
2018-05-24T19:39:29.544Z,4.23
2018-05-24T19:41:56.666Z,4.50
2018-05-24T19:44:23.102Z,3.87
2018-05-24T19:46:50.058Z,3.90
2018-05-24T19:49:17.107Z,3.30
2018-05-24T19:51:43.758Z,3.20
2018-05-24T19:54:10.584Z,2.67
2018-05-24T19:56:37.433Z,2.97
2018-05-24T19:59:04.733Z,3.53
2018-05-24T20:01:34.592Z,3.20
2018-05-24T20:04:01.209Z,3.10
2018-05-24T20:06:27.893Z,3.20
2018-05-24T20:08:55.025Z,3.70
2018-05-24T20:11:22.062Z,3.17
2018-05-24T20:13:50.045Z,3.20
2018-05-24T20:16:16.758Z,2.77
2018-05-24T20:18:43.526Z,3.17
2018-05-24T20:21:10.631Z,2.97
2018-05-24T20:23:37.142Z,3.13
2018-05-24T20:26:07.110Z,3.03
2018-05-24T20:28:37.133Z,3.63
2018-05-24T20:31:03.851Z,3.40
2018-05-24T20:33:30.501Z,3.80
2018-05-24T20:36:01.832Z,4.00
2018-05-24T20:38:28.424Z,4.30
2018-05-24T20:40:55.575Z,5.20
2018-05-24T20:43:22.210Z,4.20
2018-05-24T20:45:49.534Z,4.90
2018-05-24T20:48:16.302Z,4.03
2018-05-24T20:50:42.941Z,3.40
2018-05-24T20:53:10.805Z,3.80
2018-05-24T20:55:37.473Z,3.90
2018-05-24T20:58:04.210Z,3.90
2018-05-24T21:00:31.709Z,4.10
2018-05-24T21:02:58.541Z,3.80
2018-05-24T21:05:25.070Z,3.63
2018-05-24T21:07:55.081Z,3.57
2018-05-24T21:10:21.789Z,3.60
2018-05-24T21:12:48.432Z,4.03
2018-05-24T21:15:15.243Z,4.67
2018-05-24T21:17:42.046Z,5.13
2018-05-24T21:20:09.662Z,5.30
2018-05-24T21:22:36.491Z,5.93
2018-05-24T21:25:03.219Z,7.23
2018-05-24T21:27:30.964Z,7.17
2018-05-24T21:29:57.737Z,7.93
2018-05-24T21:32:24.363Z,8.53
2018-05-24T21:34:51.005Z,8.03
2018-05-24T21:37:18.197Z,6.70
2018-05-24T21:39:44.790Z,7.03
2018-05-24T21:42:11.466Z,7.40
2018-05-24T21:44:38.168Z,6.70
2018-05-24T21:47:04.909Z,6.60
2018-05-24T21:49:31.566Z,6.00
2018-05-24T21:51:58.630Z,6.10
2018-05-24T21:54:25.211Z,6.57
2018-05-24T21:56:55.128Z,6.80
2018-05-24T21:59:21.537Z,7.03
2018-05-24T22:01:49.888Z,6.60
2018-05-24T22:04:16.530Z,6.47
2018-05-24T22:06:46.442Z,6.57
2018-05-24T22:09:18.378Z,6.70
2018-05-24T22:11:45.078Z,6.73
2018-05-24T22:14:11.615Z,5.50
2018-05-24T22:16:38.549Z,5.57
2018-05-24T22:19:05.745Z,5.63
2018-05-24T22:21:32.411Z,5.67
2018-05-24T22:23:58.989Z,5.27
2018-05-24T22:26:25.841Z,5.30
2018-05-24T22:28:52.377Z,5.10
2018-05-24T22:31:19.076Z,5.10
2018-05-24T22:33:46.164Z,5.47
2018-05-24T22:36:16.329Z,5.70
2018-05-24T22:38:42.939Z,5.33
2018-05-24T22:41:09.845Z,5.80
2018-05-24T22:43:36.511Z,6.13
2018-05-24T22:46:06.269Z,5.90
2018-05-24T22:48:32.939Z,5.27
2018-05-24T22:50:59.442Z,5.80
2018-05-24T22:53:26.101Z,5.90
2018-05-24T22:55:52.922Z,6.47
2018-05-24T22:58:19.497Z,6.23
2018-05-24T23:00:46.031Z,6.10
2018-05-24T23:03:12.674Z,7.17
2018-05-24T23:05:45.256Z,6.33
2018-05-24T23:08:11.899Z,6.20
2018-05-24T23:10:38.524Z,5.80
2018-05-24T23:13:05.274Z,5.40
2018-05-24T23:15:37.147Z,5.70
2018-05-24T23:18:03.767Z,6.00
2018-05-24T23:20:30.441Z,5.40
2018-05-24T23:22:57.426Z,6.07
2018-05-24T23:25:24.246Z,6.00
2018-05-24T23:27:50.929Z,6.07
2018-05-24T23:30:17.703Z,6.17
2018-05-24T23:32:44.469Z,5.87
2018-05-24T23:35:11.154Z,5.83
2018-05-24T23:37:37.862Z,6.03
2018-05-24T23:40:04.313Z,5.80
2018-05-24T23:42:30.963Z,5.60
2018-05-24T23:44:57.543Z,5.10
2018-05-24T23:47:28.016Z,4.87
2018-05-24T23:49:54.737Z,5.63
2018-05-24T23:52:21.413Z,5.27
2018-05-24T23:54:48.172Z,6.23
2018-05-24T23:57:17.835Z,5.53
2018-05-24T23:59:44.880Z,5.77
